sensor_id;sensor_type;location;lat;lon;timestamp;P1;durP1;ratioP1;P2;durP2;ratioP2
1262;SDS011;62267;50.112;8.704;2022-08-01T00:01:14;3.03;;;2.83;;
1262;SDS011;62267;50.112;8.704;2022-08-01T00:04:00;2.40;;;2.30;;
1262;SDS011;62267;50.112;8.704;2022-08-01T00:06:46;3.20;;;3.00;;
1262;SDS011;62267;50.112;8.704;2022-08-01T00:09:32;3.30;;;2.53;;
1262;SDS011;62267;50.112;8.704;2022-08-01T00:12:18;2.90;;;2.70;;
1262;SDS011;62267;50.112;8.704;2022-08-01T00:15:05;3.20;;;2.90;;
1262;SDS011;62267;50.112;8.704;2022-08-01T00:17:52;4.40;;;2.70;;
1262;SDS011;62267;50.112;8.704;2022-08-01T00:20:38;2.47;;;2.27;;
1262;SDS011;62267;50.112;8.704;2022-08-01T00:23:24;2.40;;;2.30;;
1262;SDS011;62267;50.112;8.704;2022-08-01T00:26:11;3.00;;;2.80;;
1262;SDS011;62267;50.112;8.704;2022-08-01T00:28:57;4.40;;;2.80;;
1262;SDS011;62267;50.112;8.704;2022-08-01T00:31:43;2.97;;;2.77;;
1262;SDS011;62267;50.112;8.704;2022-08-01T00:34:29;2.73;;;2.63;;
1262;SDS011;62267;50.112;8.704;2022-08-01T00:37:15;3.27;;;2.80;;
1262;SDS011;62267;50.112;8.704;2022-08-01T00:40:01;2.90;;;2.60;;
1262;SDS011;62267;50.112;8.704;2022-08-01T00:42:48;2.90;;;2.70;;
1262;SDS011;62267;50.112;8.704;2022-08-01T00:45:34;3.10;;;2.90;;
1262;SDS011;62267;50.112;8.704;2022-08-01T00:48:20;4.10;;;3.00;;
1262;SDS011;62267;50.112;8.704;2022-08-01T00:51:06;4.00;;;3.17;;
1262;SDS011;62267;50.112;8.704;2022-08-01T00:53:52;3.00;;;2.80;;
1262;SDS011;62267;50.112;8.704;2022-08-01T00:56:39;3.33;;;3.03;;
1262;SDS011;62267;50.112;8.704;2022-08-01T00:59:25;3.33;;;2.50;;
1262;SDS011;62267;50.112;8.704;2022-08-01T01:02:12;3.07;;;2.87;;
1262;SDS011;62267;50.112;8.704;2022-08-01T01:05:00;3.00;;;2.80;;
1262;SDS011;62267;50.112;8.704;2022-08-01T01:08:07;3.20;;;2.97;;
1262;SDS011;62267;50.112;8.704;2022-08-01T01:10:56;3.30;;;3.03;;
1262;SDS011;62267;50.112;8.704;2022-08-01T01:13:44;2.77;;;2.57;;
1262;SDS011;62267;50.112;8.704;2022-08-01T01:16:34;3.03;;;2.83;;
1262;SDS011;62267;50.112;8.704;2022-08-01T01:19:24;4.03;;;2.70;;
1262;SDS011;62267;50.112;8.704;2022-08-01T01:28:20;2.70;;;2.50;;
1262;SDS011;62267;50.112;8.704;2022-08-01T01:31:11;2.97;;;2.77;;
1262;SDS011;62267;50.112;8.704;2022-08-01T01:33:57;3.20;;;2.97;;
1262;SDS011;62267;50.112;8.704;2022-08-01T01:36:45;2.87;;;2.67;;
1262;SDS011;62267;50.112;8.704;2022-08-01T01:39:33;2.67;;;2.57;;
1262;SDS011;62267;50.112;8.704;2022-08-01T01:42:20;4.40;;;2.70;;
1262;SDS011;62267;50.112;8.704;2022-08-01T01:45:07;3.63;;;3.30;;
1262;SDS011;62267;50.112;8.704;2022-08-01T01:47:56;2.97;;;2.73;;
1262;SDS011;62267;50.112;8.704;2022-08-01T01:50:42;3.23;;;2.93;;
1262;SDS011;62267;50.112;8.704;2022-08-01T01:53:28;3.23;;;2.80;;
1262;SDS011;62267;50.112;8.704;2022-08-01T01:56:16;3.30;;;2.60;;
1262;SDS011;62267;50.112;8.704;2022-08-01T01:59:02;3.17;;;2.97;;
1262;SDS011;62267;50.112;8.704;2022-08-01T02:01:51;3.00;;;2.80;;
1262;SDS011;62267;50.112;8.704;2022-08-01T02:04:50;6.43;;;3.00;;
1262;SDS011;62267;50.112;8.704;2022-08-01T02:07:37;2.90;;;2.70;;
1262;SDS011;62267;50.112;8.704;2022-08-01T02:10:24;3.33;;;3.07;;
1262;SDS011;62267;50.112;8.704;2022-08-01T02:13:13;3.00;;;2.80;;
1262;SDS011;62267;50.112;8.704;2022-08-01T02:16:00;3.20;;;2.83;;
1262;SDS011;62267;50.112;8.704;2022-08-01T02:18:46;3.23;;;2.93;;
1262;SDS011;62267;50.112;8.704;2022-08-01T02:21:33;3.20;;;2.90;;
1262;SDS011;62267;50.112;8.704;2022-08-01T02:27:26;3.10;;;2.90;;
1262;SDS011;62267;50.112;8.704;2022-08-01T02:30:14;5.67;;;3.03;;
1262;SDS011;62267;50.112;8.704;2022-08-01T02:33:08;3.60;;;3.30;;
1262;SDS011;62267;50.112;8.704;2022-08-01T02:36:00;3.07;;;2.87;;
1262;SDS011;62267;50.112;8.704;2022-08-01T02:39:07;3.00;;;2.80;;
1262;SDS011;62267;50.112;8.704;2022-08-01T02:41:55;5.20;;;3.23;;
1262;SDS011;62267;50.112;8.704;2022-08-01T02:44:43;5.27;;;2.80;;
1262;SDS011;62267;50.112;8.704;2022-08-01T02:47:29;3.10;;;2.83;;
1262;SDS011;62267;50.112;8.704;2022-08-01T02:50:16;4.37;;;3.00;;
1262;SDS011;62267;50.112;8.704;2022-08-01T02:53:03;3.00;;;2.83;;
1262;SDS011;62267;50.112;8.704;2022-08-01T02:55:49;5.20;;;2.93;;
1262;SDS011;62267;50.112;8.704;2022-08-01T02:58:36;4.60;;;2.80;;
1262;SDS011;62267;50.112;8.704;2022-08-01T03:01:23;3.07;;;2.87;;
1262;SDS011;62267;50.112;8.704;2022-08-01T03:04:13;3.20;;;2.90;;
1262;SDS011;62267;50.112;8.704;2022-08-01T03:07:02;2.87;;;2.60;;
1262;SDS011;62267;50.112;8.704;2022-08-01T03:09:49;3.13;;;2.93;;
1262;SDS011;62267;50.112;8.704;2022-08-01T03:12:34;3.43;;;2.90;;
1262;SDS011;62267;50.112;8.704;2022-08-01T03:15:21;3.50;;;3.20;;
1262;SDS011;62267;50.112;8.704;2022-08-01T03:18:09;3.00;;;2.70;;
1262;SDS011;62267;50.112;8.704;2022-08-01T03:20:55;3.80;;;3.00;;
1262;SDS011;62267;50.112;8.704;2022-08-01T03:23:41;3.93;;;3.63;;
1262;SDS011;62267;50.112;8.704;2022-08-01T03:26:29;3.53;;;3.23;;
1262;SDS011;62267;50.112;8.704;2022-08-01T03:29:16;2.90;;;2.70;;
1262;SDS011;62267;50.112;8.704;2022-08-01T03:32:03;2.87;;;2.67;;
1262;SDS011;62267;50.112;8.704;2022-08-01T03:34:50;4.47;;;3.30;;
1262;SDS011;62267;50.112;8.704;2022-08-01T03:37:38;3.10;;;2.80;;
1262;SDS011;62267;50.112;8.704;2022-08-01T03:40:52;3.87;;;2.80;;
1262;SDS011;62267;50.112;8.704;2022-08-01T03:43:41;3.37;;;3.17;;
1262;SDS011;62267;50.112;8.704;2022-08-01T03:46:34;3.10;;;2.80;;
1262;SDS011;62267;50.112;8.704;2022-08-01T03:49:22;2.90;;;2.70;;
1262;SDS011;62267;50.112;8.704;2022-08-01T03:52:09;3.13;;;2.93;;
1262;SDS011;62267;50.112;8.704;2022-08-01T03:54:56;3.30;;;3.10;;
1262;SDS011;62267;50.112;8.704;2022-08-01T03:57:43;5.40;;;3.87;;
1262;SDS011;62267;50.112;8.704;2022-08-01T04:00:30;3.30;;;3.00;;
1262;SDS011;62267;50.112;8.704;2022-08-01T04:03:16;3.13;;;2.90;;
1262;SDS011;62267;50.112;8.704;2022-08-01T04:06:06;3.40;;;3.10;;
1262;SDS011;62267;50.112;8.704;2022-08-01T04:08:55;3.50;;;3.30;;
1262;SDS011;62267;50.112;8.704;2022-08-01T04:11:41;3.20;;;2.93;;
1262;SDS011;62267;50.112;8.704;2022-08-01T04:14:27;3.60;;;3.30;;
1262;SDS011;62267;50.112;8.704;2022-08-01T04:17:13;3.60;;;3.30;;
1262;SDS011;62267;50.112;8.704;2022-08-01T04:20:00;3.37;;;3.17;;
1262;SDS011;62267;50.112;8.704;2022-08-01T04:22:45;3.13;;;2.93;;
1262;SDS011;62267;50.112;8.704;2022-08-01T04:25:32;4.03;;;3.73;;
1262;SDS011;62267;50.112;8.704;2022-08-01T04:28:19;4.37;;;3.30;;
1262;SDS011;62267;50.112;8.704;2022-08-01T04:31:08;5.33;;;3.67;;
1262;SDS011;62267;50.112;8.704;2022-08-01T04:33:57;3.30;;;3.10;;
1262;SDS011;62267;50.112;8.704;2022-08-01T04:36:44;3.00;;;2.80;;
1262;SDS011;62267;50.112;8.704;2022-08-01T04:39:31;3.20;;;3.00;;
1262;SDS011;62267;50.112;8.704;2022-08-01T04:42:34;3.17;;;2.93;;
1262;SDS011;62267;50.112;8.704;2022-08-01T04:45:20;3.30;;;3.00;;
1262;SDS011;62267;50.112;8.704;2022-08-01T04:48:07;3.07;;;2.87;;
1262;SDS011;62267;50.112;8.704;2022-08-01T04:50:54;3.40;;;3.20;;
1262;SDS011;62267;50.112;8.704;2022-08-01T04:53:40;3.60;;;3.30;;
1262;SDS011;62267;50.112;8.704;2022-08-01T04:56:26;5.83;;;3.30;;
1262;SDS011;62267;50.112;8.704;2022-08-01T04:59:12;4.67;;;4.20;;
1262;SDS011;62267;50.112;8.704;2022-08-01T05:02:17;3.07;;;2.87;;
1262;SDS011;62267;50.112;8.704;2022-08-01T05:05:04;3.70;;;3.40;;
1262;SDS011;62267;50.112;8.704;2022-08-01T05:07:52;3.87;;;3.50;;
1262;SDS011;62267;50.112;8.704;2022-08-01T05:10:38;3.30;;;3.10;;
1262;SDS011;62267;50.112;8.704;2022-08-01T05:13:25;4.50;;;3.97;;
1262;SDS011;62267;50.112;8.704;2022-08-01T05:16:11;4.80;;;3.67;;
1262;SDS011;62267;50.112;8.704;2022-08-01T05:18:57;3.47;;;3.27;;
1262;SDS011;62267;50.112;8.704;2022-08-01T05:21:42;3.43;;;3.10;;
1262;SDS011;62267;50.112;8.704;2022-08-01T05:24:28;4.00;;;3.70;;
1262;SDS011;62267;50.112;8.704;2022-08-01T05:27:17;4.37;;;3.90;;
1262;SDS011;62267;50.112;8.704;2022-08-01T05:30:04;3.80;;;3.50;;
1262;SDS011;62267;50.112;8.704;2022-08-01T05:32:52;4.87;;;4.40;;
1262;SDS011;62267;50.112;8.704;2022-08-01T05:35:38;3.90;;;3.50;;
1262;SDS011;62267;50.112;8.704;2022-08-01T05:38:33;3.63;;;3.33;;
1262;SDS011;62267;50.112;8.704;2022-08-01T05:41:19;4.23;;;3.73;;
1262;SDS011;62267;50.112;8.704;2022-08-01T05:44:05;4.23;;;3.83;;
1262;SDS011;62267;50.112;8.704;2022-08-01T05:46:51;3.90;;;3.60;;
1262;SDS011;62267;50.112;8.704;2022-08-01T05:49:38;3.93;;;3.63;;
1262;SDS011;62267;50.112;8.704;2022-08-01T05:52:24;3.80;;;3.60;;
1262;SDS011;62267;50.112;8.704;2022-08-01T05:55:10;4.53;;;4.13;;
1262;SDS011;62267;50.112;8.704;2022-08-01T05:57:56;4.57;;;4.13;;
1262;SDS011;62267;50.112;8.704;2022-08-01T06:00:42;3.93;;;3.50;;
1262;SDS011;62267;50.112;8.704;2022-08-01T06:03:28;3.50;;;3.20;;
1262;SDS011;62267;50.112;8.704;2022-08-01T06:06:16;4.13;;;3.57;;
1262;SDS011;62267;50.112;8.704;2022-08-01T06:09:02;7.00;;;4.27;;
1262;SDS011;62267;50.112;8.704;2022-08-01T06:11:48;4.00;;;3.40;;
1262;SDS011;62267;50.112;8.704;2022-08-01T06:14:34;5.20;;;3.63;;
1262;SDS011;62267;50.112;8.704;2022-08-01T06:17:20;4.50;;;4.10;;
1262;SDS011;62267;50.112;8.704;2022-08-01T06:20:06;4.00;;;3.70;;
1262;SDS011;62267;50.112;8.704;2022-08-01T06:22:52;4.47;;;4.07;;
1262;SDS011;62267;50.112;8.704;2022-08-01T06:25:40;5.43;;;3.37;;
1262;SDS011;62267;50.112;8.704;2022-08-01T06:28:28;3.97;;;3.60;;
1262;SDS011;62267;50.112;8.704;2022-08-01T06:31:14;6.00;;;4.57;;
1262;SDS011;62267;50.112;8.704;2022-08-01T06:34:00;4.57;;;4.17;;
1262;SDS011;62267;50.112;8.704;2022-08-01T06:36:46;4.50;;;4.20;;
1262;SDS011;62267;50.112;8.704;2022-08-01T06:39:32;4.10;;;3.80;;
1262;SDS011;62267;50.112;8.704;2022-08-01T06:42:18;6.30;;;4.37;;
1262;SDS011;62267;50.112;8.704;2022-08-01T06:45:05;5.50;;;4.57;;
1262;SDS011;62267;50.112;8.704;2022-08-01T06:47:51;4.40;;;4.10;;
1262;SDS011;62267;50.112;8.704;2022-08-01T06:50:37;5.60;;;4.80;;
1262;SDS011;62267;50.112;8.704;2022-08-01T06:53:23;5.13;;;4.73;;
1262;SDS011;62267;50.112;8.704;2022-08-01T06:56:09;4.80;;;4.33;;
1262;SDS011;62267;50.112;8.704;2022-08-01T06:58:55;5.20;;;4.70;;
1262;SDS011;62267;50.112;8.704;2022-08-01T07:01:46;4.63;;;4.20;;
1262;SDS011;62267;50.112;8.704;2022-08-01T07:04:32;5.70;;;4.77;;
1262;SDS011;62267;50.112;8.704;2022-08-01T07:07:18;5.43;;;5.03;;
1262;SDS011;62267;50.112;8.704;2022-08-01T07:10:04;5.37;;;4.97;;
1262;SDS011;62267;50.112;8.704;2022-08-01T07:12:49;5.30;;;4.90;;
1262;SDS011;62267;50.112;8.704;2022-08-01T07:15:37;5.73;;;5.13;;
1262;SDS011;62267;50.112;8.704;2022-08-01T07:18:25;5.10;;;4.70;;
1262;SDS011;62267;50.112;8.704;2022-08-01T07:21:11;5.50;;;5.10;;
1262;SDS011;62267;50.112;8.704;2022-08-01T07:24:17;6.40;;;5.90;;
1262;SDS011;62267;50.112;8.704;2022-08-01T07:27:04;7.90;;;5.73;;
1262;SDS011;62267;50.112;8.704;2022-08-01T07:30:08;6.57;;;6.07;;
1262;SDS011;62267;50.112;8.704;2022-08-01T07:32:54;6.13;;;5.60;;
1262;SDS011;62267;50.112;8.704;2022-08-01T07:35:39;6.33;;;5.70;;
1262;SDS011;62267;50.112;8.704;2022-08-01T07:38:25;6.43;;;5.83;;
1262;SDS011;62267;50.112;8.704;2022-08-01T07:41:11;6.00;;;5.50;;
1262;SDS011;62267;50.112;8.704;2022-08-01T07:43:57;5.67;;;5.17;;
1262;SDS011;62267;50.112;8.704;2022-08-01T07:46:48;6.60;;;5.70;;
1262;SDS011;62267;50.112;8.704;2022-08-01T07:49:34;7.90;;;7.10;;
1262;SDS011;62267;50.112;8.704;2022-08-01T07:52:24;7.73;;;6.07;;
1262;SDS011;62267;50.112;8.704;2022-08-01T07:55:10;7.20;;;6.60;;
1262;SDS011;62267;50.112;8.704;2022-08-01T07:58:00;5.67;;;5.27;;
1262;SDS011;62267;50.112;8.704;2022-08-01T08:00:46;6.47;;;5.90;;
1262;SDS011;62267;50.112;8.704;2022-08-01T08:03:32;6.73;;;6.13;;
1262;SDS011;62267;50.112;8.704;2022-08-01T08:06:18;6.10;;;5.53;;
1262;SDS011;62267;50.112;8.704;2022-08-01T08:09:03;6.50;;;5.90;;
1262;SDS011;62267;50.112;8.704;2022-08-01T08:11:49;7.13;;;6.27;;
1262;SDS011;62267;50.112;8.704;2022-08-01T08:14:35;8.07;;;6.57;;
1262;SDS011;62267;50.112;8.704;2022-08-01T08:17:21;7.53;;;6.87;;
1262;SDS011;62267;50.112;8.704;2022-08-01T08:20:07;6.60;;;6.00;;
1262;SDS011;62267;50.112;8.704;2022-08-01T08:22:54;8.03;;;7.33;;
1262;SDS011;62267;50.112;8.704;2022-08-01T08:25:40;7.40;;;6.70;;
1262;SDS011;62267;50.112;8.704;2022-08-01T08:28:25;7.60;;;6.97;;
1262;SDS011;62267;50.112;8.704;2022-08-01T08:31:12;7.43;;;6.73;;
1262;SDS011;62267;50.112;8.704;2022-08-01T08:34:18;8.10;;;7.30;;
1262;SDS011;62267;50.112;8.704;2022-08-01T08:37:04;6.87;;;6.33;;
1262;SDS011;62267;50.112;8.704;2022-08-01T08:39:53;8.30;;;6.97;;
1262;SDS011;62267;50.112;8.704;2022-08-01T08:42:39;8.67;;;7.77;;
1262;SDS011;62267;50.112;8.704;2022-08-01T08:45:26;9.60;;;6.97;;
1262;SDS011;62267;50.112;8.704;2022-08-01T08:48:32;7.10;;;6.60;;
1262;SDS011;62267;50.112;8.704;2022-08-01T08:51:17;9.27;;;6.70;;
1262;SDS011;62267;50.112;8.704;2022-08-01T08:54:04;7.00;;;6.37;;
1262;SDS011;62267;50.112;8.704;2022-08-01T08:56:51;8.60;;;6.63;;
1262;SDS011;62267;50.112;8.704;2022-08-01T08:59:37;7.80;;;6.63;;
1262;SDS011;62267;50.112;8.704;2022-08-01T09:02:23;7.63;;;6.83;;
1262;SDS011;62267;50.112;8.704;2022-08-01T09:05:09;9.70;;;7.10;;
1262;SDS011;62267;50.112;8.704;2022-08-01T09:08:01;6.70;;;6.10;;
1262;SDS011;62267;50.112;8.704;2022-08-01T09:10:46;6.90;;;6.30;;
1262;SDS011;62267;50.112;8.704;2022-08-01T09:13:32;6.87;;;6.33;;
1262;SDS011;62267;50.112;8.704;2022-08-01T09:16:18;6.80;;;6.30;;
1262;SDS011;62267;50.112;8.704;2022-08-01T09:22:00;6.63;;;6.03;;
1262;SDS011;62267;50.112;8.704;2022-08-01T09:25:02;6.47;;;5.87;;
1262;SDS011;62267;50.112;8.704;2022-08-01T09:27:48;6.83;;;6.33;;
1262;SDS011;62267;50.112;8.704;2022-08-01T09:30:46;6.93;;;6.27;;
1262;SDS011;62267;50.112;8.704;2022-08-01T09:36:47;6.90;;;6.30;;
1262;SDS011;62267;50.112;8.704;2022-08-01T09:39:38;7.07;;;6.43;;
1262;SDS011;62267;50.112;8.704;2022-08-01T09:42:28;8.10;;;7.30;;
1262;SDS011;62267;50.112;8.704;2022-08-01T09:45:33;7.33;;;6.63;;
1262;SDS011;62267;50.112;8.704;2022-08-01T09:48:27;7.07;;;6.47;;
1262;SDS011;62267;50.112;8.704;2022-08-01T09:51:14;8.73;;;7.63;;
1262;SDS011;62267;50.112;8.704;2022-08-01T09:54:33;7.03;;;6.43;;
1262;SDS011;62267;50.112;8.704;2022-08-01T09:57:19;6.77;;;6.27;;
1262;SDS011;62267;50.112;8.704;2022-08-01T10:00:05;8.50;;;7.13;;
1262;SDS011;62267;50.112;8.704;2022-08-01T10:03:25;7.87;;;7.07;;
1262;SDS011;62267;50.112;8.704;2022-08-01T10:06:20;7.57;;;6.87;;
1262;SDS011;62267;50.112;8.704;2022-08-01T10:09:11;9.23;;;6.90;;
1262;SDS011;62267;50.112;8.704;2022-08-01T10:11:58;7.00;;;5.90;;
1262;SDS011;62267;50.112;8.704;2022-08-01T10:14:46;7.20;;;6.60;;
1262;SDS011;62267;50.112;8.704;2022-08-01T10:17:34;7.73;;;6.47;;
1262;SDS011;62267;50.112;8.704;2022-08-01T10:20:35;7.13;;;6.53;;
1262;SDS011;62267;50.112;8.704;2022-08-01T10:23:21;7.43;;;6.73;;
1262;SDS011;62267;50.112;8.704;2022-08-01T10:26:25;7.07;;;6.47;;
1262;SDS011;62267;50.112;8.704;2022-08-01T10:29:12;6.47;;;5.90;;
1262;SDS011;62267;50.112;8.704;2022-08-01T10:32:18;6.70;;;6.10;;
1262;SDS011;62267;50.112;8.704;2022-08-01T10:35:06;7.43;;;6.83;;
1262;SDS011;62267;50.112;8.704;2022-08-01T10:37:59;5.73;;;5.23;;
1262;SDS011;62267;50.112;8.704;2022-08-01T10:40:45;6.40;;;5.90;;
1262;SDS011;62267;50.112;8.704;2022-08-01T10:43:31;7.27;;;6.57;;
1262;SDS011;62267;50.112;8.704;2022-08-01T10:46:19;6.73;;;6.13;;
1262;SDS011;62267;50.112;8.704;2022-08-01T10:49:13;8.90;;;6.50;;
1262;SDS011;62267;50.112;8.704;2022-08-01T10:51:59;5.97;;;5.47;;
1262;SDS011;62267;50.112;8.704;2022-08-01T10:54:46;5.83;;;5.43;;
1262;SDS011;62267;50.112;8.704;2022-08-01T10:57:46;6.37;;;5.80;;
1262;SDS011;62267;50.112;8.704;2022-08-01T11:00:37;6.63;;;5.77;;
1262;SDS011;62267;50.112;8.704;2022-08-01T11:03:32;6.20;;;5.70;;
1262;SDS011;62267;50.112;8.704;2022-08-01T11:06:42;6.07;;;5.63;;
1262;SDS011;62267;50.112;8.704;2022-08-01T11:09:38;5.20;;;4.80;;
1262;SDS011;62267;50.112;8.704;2022-08-01T11:12:24;6.83;;;6.33;;
1262;SDS011;62267;50.112;8.704;2022-08-01T11:15:25;5.73;;;5.23;;
1262;SDS011;62267;50.112;8.704;2022-08-01T11:18:30;5.77;;;5.20;;
1262;SDS011;62267;50.112;8.704;2022-08-01T11:21:16;5.77;;;5.27;;
1262;SDS011;62267;50.112;8.704;2022-08-01T11:27:31;5.33;;;4.93;;
1262;SDS011;62267;50.112;8.704;2022-08-01T11:33:05;5.83;;;5.33;;
1262;SDS011;62267;50.112;8.704;2022-08-01T11:41:58;5.83;;;5.33;;
1262;SDS011;62267;50.112;8.704;2022-08-01T11:45:02;7.40;;;5.60;;
1262;SDS011;62267;50.112;8.704;2022-08-01T11:47:49;5.17;;;4.77;;
1262;SDS011;62267;50.112;8.704;2022-08-01T11:50:35;5.27;;;4.87;;
1262;SDS011;62267;50.112;8.704;2022-08-01T11:53:22;5.97;;;5.47;;
1262;SDS011;62267;50.112;8.704;2022-08-01T11:56:10;5.60;;;5.20;;
1262;SDS011;62267;50.112;8.704;2022-08-01T11:58:59;5.20;;;4.80;;
1262;SDS011;62267;50.112;8.704;2022-08-01T12:01:47;6.27;;;5.63;;
1262;SDS011;62267;50.112;8.704;2022-08-01T12:07:38;4.50;;;4.20;;
1262;SDS011;62267;50.112;8.704;2022-08-01T12:10:34;5.30;;;4.80;;
1262;SDS011;62267;50.112;8.704;2022-08-01T12:13:40;6.40;;;5.50;;
1262;SDS011;62267;50.112;8.704;2022-08-01T12:16:26;4.90;;;4.50;;
1262;SDS011;62267;50.112;8.704;2022-08-01T12:19:21;4.90;;;4.50;;
1262;SDS011;62267;50.112;8.704;2022-08-01T12:22:13;6.30;;;5.80;;
1262;SDS011;62267;50.112;8.704;2022-08-01T12:25:09;5.80;;;5.20;;
1262;SDS011;62267;50.112;8.704;2022-08-01T12:27:59;4.80;;;4.43;;
1262;SDS011;62267;50.112;8.704;2022-08-01T12:30:46;4.57;;;4.27;;
1262;SDS011;62267;50.112;8.704;2022-08-01T12:33:32;4.37;;;4.07;;
1262;SDS011;62267;50.112;8.704;2022-08-01T12:36:28;4.37;;;4.10;;
1262;SDS011;62267;50.112;8.704;2022-08-01T12:39:15;4.10;;;3.70;;
1262;SDS011;62267;50.112;8.704;2022-08-01T12:42:05;4.00;;;3.80;;
1262;SDS011;62267;50.112;8.704;2022-08-01T12:44:52;4.00;;;3.70;;
1262;SDS011;62267;50.112;8.704;2022-08-01T12:47:39;4.87;;;4.33;;
1262;SDS011;62267;50.112;8.704;2022-08-01T12:50:26;5.23;;;4.83;;
1262;SDS011;62267;50.112;8.704;2022-08-01T12:53:14;4.60;;;4.30;;
1262;SDS011;62267;50.112;8.704;2022-08-01T12:56:00;5.37;;;4.90;;
1262;SDS011;62267;50.112;8.704;2022-08-01T12:58:46;5.27;;;4.87;;
1262;SDS011;62267;50.112;8.704;2022-08-01T13:01:32;4.57;;;4.10;;
1262;SDS011;62267;50.112;8.704;2022-08-01T13:04:19;4.73;;;4.33;;
1262;SDS011;62267;50.112;8.704;2022-08-01T13:07:05;4.37;;;4.07;;
1262;SDS011;62267;50.112;8.704;2022-08-01T13:09:51;4.20;;;3.87;;
1262;SDS011;62267;50.112;8.704;2022-08-01T13:12:38;4.40;;;4.07;;
1262;SDS011;62267;50.112;8.704;2022-08-01T13:15:34;4.40;;;3.60;;
1262;SDS011;62267;50.112;8.704;2022-08-01T13:18:29;4.30;;;4.00;;
1262;SDS011;62267;50.112;8.704;2022-08-01T13:21:19;4.53;;;4.13;;
1262;SDS011;62267;50.112;8.704;2022-08-01T13:26:56;4.30;;;4.00;;
1262;SDS011;62267;50.112;8.704;2022-08-01T13:29:44;5.30;;;4.80;;
1262;SDS011;62267;50.112;8.704;2022-08-01T13:32:31;4.60;;;4.30;;
1262;SDS011;62267;50.112;8.704;2022-08-01T13:35:19;5.23;;;4.30;;
1262;SDS011;62267;50.112;8.704;2022-08-01T13:38:06;4.90;;;4.50;;
1262;SDS011;62267;50.112;8.704;2022-08-01T13:40:57;4.57;;;4.27;;
1262;SDS011;62267;50.112;8.704;2022-08-01T13:43:42;5.03;;;4.53;;
1262;SDS011;62267;50.112;8.704;2022-08-01T13:46:43;4.80;;;4.13;;
1262;SDS011;62267;50.112;8.704;2022-08-01T13:49:35;4.63;;;4.33;;
1262;SDS011;62267;50.112;8.704;2022-08-01T13:52:24;6.60;;;4.40;;
1262;SDS011;62267;50.112;8.704;2022-08-01T13:55:10;5.40;;;4.90;;
1262;SDS011;62267;50.112;8.704;2022-08-01T13:57:55;4.23;;;3.93;;
1262;SDS011;62267;50.112;8.704;2022-08-01T14:00:41;6.60;;;5.23;;
1262;SDS011;62267;50.112;8.704;2022-08-01T14:03:27;5.00;;;4.60;;
1262;SDS011;62267;50.112;8.704;2022-08-01T14:06:18;4.43;;;4.13;;
1262;SDS011;62267;50.112;8.704;2022-08-01T14:09:06;5.27;;;4.40;;
1262;SDS011;62267;50.112;8.704;2022-08-01T14:12:03;4.23;;;3.93;;
1262;SDS011;62267;50.112;8.704;2022-08-01T14:14:51;4.77;;;4.37;;
1262;SDS011;62267;50.112;8.704;2022-08-01T14:17:38;4.90;;;4.50;;
1262;SDS011;62267;50.112;8.704;2022-08-01T14:20:32;4.97;;;4.50;;
1262;SDS011;62267;50.112;8.704;2022-08-01T14:23:18;5.13;;;4.20;;
1262;SDS011;62267;50.112;8.704;2022-08-01T14:26:06;6.10;;;5.53;;
1262;SDS011;62267;50.112;8.704;2022-08-01T14:28:56;5.60;;;5.20;;
1262;SDS011;62267;50.112;8.704;2022-08-01T14:31:42;5.90;;;5.30;;
1262;SDS011;62267;50.112;8.704;2022-08-01T14:34:28;5.70;;;5.30;;
1262;SDS011;62267;50.112;8.704;2022-08-01T14:37:13;5.97;;;5.47;;
1262;SDS011;62267;50.112;8.704;2022-08-01T14:40:00;5.60;;;5.20;;
1262;SDS011;62267;50.112;8.704;2022-08-01T14:42:53;5.60;;;4.97;;
1262;SDS011;62267;50.112;8.704;2022-08-01T14:45:39;5.20;;;4.70;;
1262;SDS011;62267;50.112;8.704;2022-08-01T14:48:25;6.23;;;5.70;;
1262;SDS011;62267;50.112;8.704;2022-08-01T14:51:11;5.73;;;5.33;;
1262;SDS011;62267;50.112;8.704;2022-08-01T14:53:56;5.80;;;5.30;;
1262;SDS011;62267;50.112;8.704;2022-08-01T14:56:44;7.07;;;5.60;;
1262;SDS011;62267;50.112;8.704;2022-08-01T14:59:32;6.27;;;5.63;;
1262;SDS011;62267;50.112;8.704;2022-08-01T15:02:18;6.20;;;5.70;;
1262;SDS011;62267;50.112;8.704;2022-08-01T15:05:04;11.90;;;5.00;;
1262;SDS011;62267;50.112;8.704;2022-08-01T15:07:50;5.57;;;5.07;;
1262;SDS011;62267;50.112;8.704;2022-08-01T15:10:37;4.87;;;4.57;;
1262;SDS011;62267;50.112;8.704;2022-08-01T15:13:24;5.13;;;4.83;;
1262;SDS011;62267;50.112;8.704;2022-08-01T15:16:10;5.73;;;5.27;;
1262;SDS011;62267;50.112;8.704;2022-08-01T15:18:56;5.97;;;5.43;;
1262;SDS011;62267;50.112;8.704;2022-08-01T15:21:43;5.33;;;4.83;;
1262;SDS011;62267;50.112;8.704;2022-08-01T15:24:28;4.93;;;4.63;;
1262;SDS011;62267;50.112;8.704;2022-08-01T15:27:14;5.53;;;5.13;;
1262;SDS011;62267;50.112;8.704;2022-08-01T15:30:00;7.80;;;6.07;;
1262;SDS011;62267;50.112;8.704;2022-08-01T15:32:46;6.47;;;5.97;;
1262;SDS011;62267;50.112;8.704;2022-08-01T15:35:35;5.70;;;5.30;;
1262;SDS011;62267;50.112;8.704;2022-08-01T15:38:21;6.13;;;5.63;;
1262;SDS011;62267;50.112;8.704;2022-08-01T15:41:08;6.17;;;5.77;;
1262;SDS011;62267;50.112;8.704;2022-08-01T15:43:55;7.20;;;5.40;;
1262;SDS011;62267;50.112;8.704;2022-08-01T15:46:42;5.00;;;4.70;;
1262;SDS011;62267;50.112;8.704;2022-08-01T15:49:28;6.10;;;5.60;;
1262;SDS011;62267;50.112;8.704;2022-08-01T15:52:14;5.83;;;5.20;;
1262;SDS011;62267;50.112;8.704;2022-08-01T15:55:06;6.77;;;5.90;;
1262;SDS011;62267;50.112;8.704;2022-08-01T15:57:54;5.80;;;5.40;;
1262;SDS011;62267;50.112;8.704;2022-08-01T16:00:40;5.40;;;4.90;;
1262;SDS011;62267;50.112;8.704;2022-08-01T16:03:27;6.03;;;5.10;;
1262;SDS011;62267;50.112;8.704;2022-08-01T16:06:13;5.60;;;5.13;;
1262;SDS011;62267;50.112;8.704;2022-08-01T16:08:59;9.63;;;7.20;;
1262;SDS011;62267;50.112;8.704;2022-08-01T16:11:45;8.10;;;7.40;;
1262;SDS011;62267;50.112;8.704;2022-08-01T16:14:35;9.70;;;6.53;;
1262;SDS011;62267;50.112;8.704;2022-08-01T16:17:20;6.13;;;5.53;;
1262;SDS011;62267;50.112;8.704;2022-08-01T16:20:06;5.80;;;5.30;;
1262;SDS011;62267;50.112;8.704;2022-08-01T16:22:52;6.00;;;5.40;;
1262;SDS011;62267;50.112;8.704;2022-08-01T16:25:38;5.57;;;5.07;;
1262;SDS011;62267;50.112;8.704;2022-08-01T16:28:24;7.30;;;4.87;;
1262;SDS011;62267;50.112;8.704;2022-08-01T16:31:10;6.17;;;5.67;;
1262;SDS011;62267;50.112;8.704;2022-08-01T16:34:16;4.93;;;4.53;;
1262;SDS011;62267;50.112;8.704;2022-08-01T16:37:05;5.20;;;4.77;;
1262;SDS011;62267;50.112;8.704;2022-08-01T16:39:51;4.60;;;4.30;;
1262;SDS011;62267;50.112;8.704;2022-08-01T16:42:40;5.43;;;4.93;;
1262;SDS011;62267;50.112;8.704;2022-08-01T16:45:26;5.73;;;5.00;;
1262;SDS011;62267;50.112;8.704;2022-08-01T16:48:13;4.93;;;4.53;;
1262;SDS011;62267;50.112;8.704;2022-08-01T16:51:00;5.80;;;5.20;;
1262;SDS011;62267;50.112;8.704;2022-08-01T16:53:45;5.47;;;4.97;;
1262;SDS011;62267;50.112;8.704;2022-08-01T16:56:31;4.93;;;4.43;;
1262;SDS011;62267;50.112;8.704;2022-08-01T16:59:17;5.10;;;4.63;;
1262;SDS011;62267;50.112;8.704;2022-08-01T17:02:03;5.13;;;4.67;;
1262;SDS011;62267;50.112;8.704;2022-08-01T17:04:51;5.23;;;4.70;;
1262;SDS011;62267;50.112;8.704;2022-08-01T17:07:39;4.97;;;4.40;;
1262;SDS011;62267;50.112;8.704;2022-08-01T17:10:25;4.97;;;4.47;;
1262;SDS011;62267;50.112;8.704;2022-08-01T17:13:11;4.23;;;3.80;;
1262;SDS011;62267;50.112;8.704;2022-08-01T17:15:56;5.00;;;4.60;;
1262;SDS011;62267;50.112;8.704;2022-08-01T17:18:42;5.10;;;4.70;;
1262;SDS011;62267;50.112;8.704;2022-08-01T17:21:28;5.30;;;4.80;;
1262;SDS011;62267;50.112;8.704;2022-08-01T17:24:13;5.50;;;4.93;;
1262;SDS011;62267;50.112;8.704;2022-08-01T17:27:00;5.20;;;4.80;;
1262;SDS011;62267;50.112;8.704;2022-08-01T17:29:46;5.70;;;5.30;;
1262;SDS011;62267;50.112;8.704;2022-08-01T17:32:31;5.40;;;5.00;;
1262;SDS011;62267;50.112;8.704;2022-08-01T17:35:24;6.37;;;5.80;;
1262;SDS011;62267;50.112;8.704;2022-08-01T17:38:10;7.17;;;6.53;;
1262;SDS011;62267;50.112;8.704;2022-08-01T17:40:55;5.53;;;5.07;;
1262;SDS011;62267;50.112;8.704;2022-08-01T17:43:41;5.80;;;5.10;;